Time;durP1;ratioP1;P1;durP2;ratioP2;P2;SDS_P1;SDS_P2;PMS_P1;PMS_P2;Temp;Humidity;BMP_temperature;BMP_pressure;BME280_temperature;BME280_humidity;BME280_pressure;Samples;Min_cycle;Max_cycle;Signal;HPM_P1;HPM_P2
2021/06/18 00:02:24;;;;;;;10.68;4.43;;;;;;;;;;5073067;28;20321;-73
2021/06/18 00:04:49;;;;;;;17.23;4.75;;;;;;;;;;5054572;28;20437;-74
2021/06/18 00:07:14;;;;;;;12.75;4.70;;;;;;;;;;5070424;28;20059;-74
2021/06/18 00:09:40;;;;;;;20.50;5.57;;;;;;;;;;5075112;28;20048;-74
2021/06/18 00:12:05;;;;;;;16.90;6.05;;;;;;;;;;5071710;28;20306;-74
2021/06/18 00:14:32;;;;;;;13.35;4.75;;;;;;;;;;5071143;28;20020;-73
2021/06/18 00:16:57;;;;;;;12.60;5.38;;;;;;;;;;5071031;28;20032;-73
2021/06/18 00:19:23;;;;;;;15.95;5.05;;;;;;;;;;5054111;28;20082;-74
2021/06/18 00:21:48;;;;;;;18.90;4.97;;;;;;;;;;5070760;28;20019;-73
2021/06/18 00:24:13;;;;;;;12.77;5.17;;;;;;;;;;5070093;28;20274;-73
2021/06/18 00:26:38;;;;;;;12.10;5.80;;;;;;;;;;5070983;28;20285;-73
2021/06/18 00:29:04;;;;;;;12.27;5.45;;;;;;;;;;5053635;28;20017;-74
2021/06/18 00:31:29;;;;;;;15.57;5.88;;;;;;;;;;5072491;28;20031;-75
2021/06/18 00:33:54;;;;;;;12.57;6.13;;;;;;;;;;5070365;28;20028;-75
2021/06/18 00:36:19;;;;;;;19.57;5.67;;;;;;;;;;5069548;28;20055;-75
2021/06/18 00:38:44;;;;;;;13.53;5.30;;;;;;;;;;5070825;28;20559;-75
2021/06/18 00:41:10;;;;;;;12.20;5.90;;;;;;;;;;5068564;28;20393;-75
2021/06/18 00:43:35;;;;;;;11.70;4.90;;;;;;;;;;5070161;28;20024;-75
2021/06/18 00:46:00;;;;;;;14.18;4.70;;;;;;;;;;5069737;28;20269;-74
2021/06/18 00:48:26;;;;;;;12.55;5.72;;;;;;;;;;5070713;28;20032;-73
2021/06/18 00:50:51;;;;;;;23.23;5.80;;;;;;;;;;5070027;28;20050;-75
2021/06/18 00:53:17;;;;;;;14.73;5.95;;;;;;;;;;5070109;28;20016;-74
2021/06/18 00:55:46;;;;;;;15.70;5.72;;;;;;;;;;5073305;28;20055;-75
2021/06/18 00:58:11;;;;;;;17.83;5.70;;;;;;;;;;5073040;28;20017;-74
2021/06/18 01:00:36;;;;;;;16.88;5.60;;;;;;;;;;5076269;28;20552;-73
2021/06/18 01:03:01;;;;;;;12.98;5.80;;;;;;;;;;5074944;28;20032;-75
2021/06/18 01:05:27;;;;;;;14.20;5.40;;;;;;;;;;5074837;28;20103;-75
2021/06/18 01:08:01;;;;;;;16.13;6.13;;;;;;;;;;5074368;28;20287;-74
2021/06/18 01:10:37;;;;;;;15.18;6.82;;;;;;;;;;5074106;28;20074;-75
2021/06/18 01:13:02;;;;;;;14.50;5.63;;;;;;;;;;5075319;28;20028;-75
2021/06/18 01:15:39;;;;;;;16.00;5.82;;;;;;;;;;5074557;28;20029;-75
2021/06/18 01:18:07;;;;;;;14.07;5.88;;;;;;;;;;5077004;28;20047;-73
2021/06/18 01:20:39;;;;;;;9.75;5.65;;;;;;;;;;5075953;28;20016;-75
2021/06/18 01:23:12;;;;;;;21.05;6.28;;;;;;;;;;5073809;28;20039;-75
2021/06/18 01:25:48;;;;;;;11.68;6.03;;;;;;;;;;5074578;28;20022;-75
2021/06/18 01:28:29;;;;;;;12.65;7.38;;;;;;;;;;5075423;28;20725;-75
2021/06/18 01:30:56;;;;;;;13.65;6.85;;;;;;;;;;5060768;28;20074;-74
2021/06/18 01:33:22;;;;;;;15.68;6.38;;;;;;;;;;5072882;28;20012;-73
2021/06/18 01:35:49;;;;;;;13.75;6.65;;;;;;;;;;5074522;28;20417;-73
2021/06/18 01:38:15;;;;;;;20.25;7.43;;;;;;;;;;5074444;28;20121;-74
2021/06/18 01:40:43;;;;;;;13.80;6.15;;;;;;;;;;5074436;28;20044;-73
2021/06/18 01:43:08;;;;;;;11.80;6.82;;;;;;;;;;5073197;28;20025;-74
2021/06/18 01:45:35;;;;;;;20.23;6.72;;;;;;;;;;5073702;28;20025;-74
2021/06/18 01:48:02;;;;;;;12.77;7.22;;;;;;;;;;5074092;28;20028;-74
2021/06/18 01:50:31;;;;;;;15.95;5.85;;;;;;;;;;5071518;28;20025;-73
2021/06/18 01:53:05;;;;;;;17.30;5.97;;;;;;;;;;5072784;28;20074;-73
2021/06/18 01:55:32;;;;;;;13.35;6.97;;;;;;;;;;5075426;28;20486;-73
2021/06/18 01:57:59;;;;;;;13.23;7.10;;;;;;;;;;5072293;28;20470;-73
2021/06/18 02:00:25;;;;;;;14.52;7.35;;;;;;;;;;5070283;28;20490;-74
2021/06/18 02:02:51;;;;;;;19.45;7.10;;;;;;;;;;5070451;28;20056;-75
2021/06/18 02:05:17;;;;;;;11.98;7.22;;;;;;;;;;5073063;28;20059;-73
2021/06/18 02:07:42;;;;;;;12.18;6.35;;;;;;;;;;5070910;28;20013;-72
2021/06/18 02:10:09;;;;;;;13.88;7.43;;;;;;;;;;5073039;28;20485;-74
2021/06/18 02:12:34;;;;;;;16.70;8.05;;;;;;;;;;5073356;28;20103;-73
2021/06/18 02:15:00;;;;;;;16.63;7.40;;;;;;;;;;5072146;28;20103;-72
2021/06/18 02:17:27;;;;;;;14.30;7.80;;;;;;;;;;5072723;28;20013;-75
2021/06/18 02:19:54;;;;;;;13.77;7.10;;;;;;;;;;5055266;28;20029;-73
2021/06/18 02:22:20;;;;;;;16.25;6.78;;;;;;;;;;5072707;28;20021;-73
2021/06/18 02:24:45;;;;;;;17.00;7.22;;;;;;;;;;5074403;28;20123;-73
2021/06/18 02:27:14;;;;;;;12.45;7.35;;;;;;;;;;5073449;28;20055;-73
2021/06/18 02:29:40;;;;;;;14.48;6.50;;;;;;;;;;5072662;28;20024;-74
2021/06/18 02:32:06;;;;;;;14.43;7.78;;;;;;;;;;5074492;28;20566;-75
2021/06/18 02:34:33;;;;;;;21.05;8.05;;;;;;;;;;5055164;28;20035;-75
2021/06/18 02:36:58;;;;;;;19.60;7.40;;;;;;;;;;5073622;28;20021;-73
2021/06/18 02:39:24;;;;;;;19.03;6.93;;;;;;;;;;5055774;28;20086;-73
2021/06/18 02:41:49;;;;;;;14.15;7.38;;;;;;;;;;5055347;28;20522;-73
2021/06/18 02:44:14;;;;;;;23.02;7.55;;;;;;;;;;5054924;28;20043;-73
2021/06/18 02:46:49;;;;;;;12.67;7.30;;;;;;;;;;5073152;28;20050;-73
2021/06/18 02:49:17;;;;;;;15.50;7.70;;;;;;;;;;5071790;28;20765;-73
2021/06/18 02:51:50;;;;;;;19.55;8.27;;;;;;;;;;5073383;28;20028;-73
2021/06/18 02:54:26;;;;;;;14.68;8.52;;;;;;;;;;5073240;28;20139;-73
2021/06/18 02:56:57;;;;;;;20.50;7.93;;;;;;;;;;5072944;28;20016;-73
2021/06/18 02:59:28;;;;;;;26.40;8.25;;;;;;;;;;5073008;28;20028;-75
2021/06/18 03:01:57;;;;;;;21.13;7.38;;;;;;;;;;5073310;28;20154;-73
2021/06/18 03:04:25;;;;;;;13.00;7.07;;;;;;;;;;5071703;28;20016;-73
2021/06/18 03:06:52;;;;;;;11.90;7.07;;;;;;;;;;5074301;28;20081;-73
2021/06/18 03:09:29;;;;;;;17.83;7.35;;;;;;;;;;5072871;28;20381;-73
2021/06/18 03:11:55;;;;;;;14.50;7.78;;;;;;;;;;5072007;28;20043;-73
2021/06/18 03:14:21;;;;;;;11.57;7.60;;;;;;;;;;5071184;28;20463;-73
2021/06/18 03:16:48;;;;;;;15.32;8.15;;;;;;;;;;5071406;28;20023;-73
2021/06/18 03:19:15;;;;;;;18.63;8.38;;;;;;;;;;5070800;28;20066;-73
2021/06/18 03:21:40;;;;;;;15.93;8.80;;;;;;;;;;5070339;28;20099;-74
2021/06/18 03:24:07;;;;;;;20.48;8.20;;;;;;;;;;5060716;28;20112;-73
2021/06/18 03:26:32;;;;;;;15.35;7.63;;;;;;;;;;5071360;28;20020;-73
2021/06/18 03:28:58;;;;;;;15.85;8.88;;;;;;;;;;5071380;28;20021;-73
2021/06/18 03:31:25;;;;;;;16.45;7.88;;;;;;;;;;5070010;28;20425;-75
2021/06/18 03:33:51;;;;;;;16.75;7.97;;;;;;;;;;5071532;28;20438;-73
2021/06/18 03:36:26;;;;;;;13.73;8.00;;;;;;;;;;5070875;28;20016;-73
2021/06/18 03:38:52;;;;;;;15.27;7.25;;;;;;;;;;5066332;28;20021;-73
2021/06/18 03:41:19;;;;;;;16.13;8.82;;;;;;;;;;5066223;28;20013;-73
2021/06/18 03:43:44;;;;;;;11.52;7.90;;;;;;;;;;5071275;28;20039;-76
2021/06/18 03:46:10;;;;;;;25.55;9.13;;;;;;;;;;5070861;28;20573;-73
2021/06/18 03:48:36;;;;;;;15.65;9.20;;;;;;;;;;5071081;28;20036;-73
2021/06/18 03:51:01;;;;;;;14.25;8.60;;;;;;;;;;5070775;28;20016;-73
2021/06/18 03:53:27;;;;;;;10.77;8.00;;;;;;;;;;5051655;28;20028;-74
2021/06/18 03:55:52;;;;;;;16.08;8.75;;;;;;;;;;5069998;28;20391;-75
2021/06/18 03:58:20;;;;;;;13.55;8.75;;;;;;;;;;5068240;28;20028;-75
2021/06/18 04:00:47;;;;;;;21.83;9.25;;;;;;;;;;5068723;28;20019;-74
2021/06/18 04:03:12;;;;;;;21.00;9.63;;;;;;;;;;5059338;28;20032;-75
2021/06/18 04:05:39;;;;;;;13.77;8.88;;;;;;;;;;5067038;28;20472;-73
2021/06/18 04:08:05;;;;;;;25.05;10.30;;;;;;;;;;5069179;28;20526;-74
2021/06/18 04:10:31;;;;;;;34.67;10.20;;;;;;;;;;5050603;28;20025;-73
2021/06/18 04:12:57;;;;;;;21.15;9.55;;;;;;;;;;5067823;28;20501;-74
2021/06/18 04:15:23;;;;;;;23.67;9.88;;;;;;;;;;5067252;28;20040;-74
2021/06/18 04:17:49;;;;;;;14.45;9.00;;;;;;;;;;5065513;28;20101;-73
2021/06/18 04:20:15;;;;;;;18.50;9.85;;;;;;;;;;5068076;28;20016;-73
2021/06/18 04:22:41;;;;;;;18.02;10.35;;;;;;;;;;5069524;28;20372;-74
2021/06/18 04:25:06;;;;;;;14.65;9.98;;;;;;;;;;5070058;28;20103;-74
2021/06/18 04:27:32;;;;;;;15.15;9.68;;;;;;;;;;5070052;28;20028;-75
2021/06/18 04:29:57;;;;;;;20.65;11.02;;;;;;;;;;5067734;28;20103;-75
2021/06/18 04:32:22;;;;;;;16.93;9.80;;;;;;;;;;5069878;28;20302;-75
2021/06/18 04:34:48;;;;;;;15.77;10.57;;;;;;;;;;5069732;28;20697;-75
2021/06/18 04:37:13;;;;;;;16.95;10.77;;;;;;;;;;5070030;28;20270;-75
2021/06/18 04:39:38;;;;;;;13.80;9.55;;;;;;;;;;5069276;28;20047;-75
2021/06/18 04:42:04;;;;;;;16.27;9.73;;;;;;;;;;5070152;28;20374;-75
2021/06/18 04:44:30;;;;;;;18.23;9.88;;;;;;;;;;5066340;28;20045;-75
2021/06/18 04:46:55;;;;;;;23.77;9.73;;;;;;;;;;5067835;28;20063;-74
2021/06/18 04:49:20;;;;;;;25.23;10.93;;;;;;;;;;5070278;28;20027;-74
2021/06/18 04:51:45;;;;;;;20.83;10.37;;;;;;;;;;5069766;28;20151;-75
2021/06/18 04:54:11;;;;;;;21.37;10.67;;;;;;;;;;5069658;28;20613;-75
2021/06/18 04:56:39;;;;;;;18.00;9.25;;;;;;;;;;5069148;28;20274;-75
2021/06/18 04:59:05;;;;;;;21.58;10.35;;;;;;;;;;5069791;28;20036;-74
2021/06/18 05:01:30;;;;;;;18.08;10.30;;;;;;;;;;5061501;28;20036;-74
2021/06/18 05:03:55;;;;;;;21.70;11.45;;;;;;;;;;5055665;28;20029;-74
2021/06/18 05:06:20;;;;;;;20.48;10.88;;;;;;;;;;5053905;28;20032;-74
2021/06/18 05:08:46;;;;;;;18.73;10.52;;;;;;;;;;5070314;28;20040;-75
2021/06/18 05:11:11;;;;;;;15.60;10.73;;;;;;;;;;5069379;28;20024;-75
2021/06/18 05:13:36;;;;;;;15.30;9.40;;;;;;;;;;5068051;28;20332;-74
2021/06/18 05:16:01;;;;;;;18.00;10.23;;;;;;;;;;5067065;28;20302;-73
2021/06/18 05:18:26;;;;;;;27.35;10.35;;;;;;;;;;5042034;28;20051;-73
2021/06/18 05:20:52;;;;;;;14.20;9.32;;;;;;;;;;5051915;28;20417;-73
2021/06/18 05:23:18;;;;;;;16.45;9.25;;;;;;;;;;5069516;28;20055;-74
2021/06/18 05:25:43;;;;;;;13.93;9.13;;;;;;;;;;5069910;28;20048;-72
2021/06/18 05:28:08;;;;;;;17.43;10.40;;;;;;;;;;5067735;28;20514;-74
2021/06/18 05:30:33;;;;;;;18.13;10.93;;;;;;;;;;5068845;28;20025;-73
2021/06/18 05:32:58;;;;;;;17.57;8.47;;;;;;;;;;5069798;28;20301;-73
2021/06/18 05:35:24;;;;;;;15.17;9.80;;;;;;;;;;5051200;28;20299;-73
2021/06/18 05:37:52;;;;;;;24.80;12.00;;;;;;;;;;5067646;28;20836;-73
2021/06/18 05:40:17;;;;;;;17.38;10.40;;;;;;;;;;5065951;28;20799;-73
2021/06/18 05:42:43;;;;;;;19.43;11.23;;;;;;;;;;5070685;28;20016;-73
2021/06/18 05:45:08;;;;;;;18.45;11.13;;;;;;;;;;5052553;28;20270;-74
2021/06/18 05:47:34;;;;;;;16.27;11.00;;;;;;;;;;5070589;28;20132;-74
2021/06/18 05:49:59;;;;;;;23.02;10.63;;;;;;;;;;5070704;28;20012;-75
2021/06/18 05:52:24;;;;;;;16.60;10.37;;;;;;;;;;5070704;28;20117;-75
2021/06/18 05:54:50;;;;;;;16.73;10.93;;;;;;;;;;5069411;28;20020;-76
2021/06/18 05:57:15;;;;;;;24.80;10.82;;;;;;;;;;5070570;28;20317;-73
2021/06/18 05:59:40;;;;;;;14.88;10.35;;;;;;;;;;5067504;28;20060;-74
2021/06/18 06:02:06;;;;;;;20.43;10.90;;;;;;;;;;5072051;28;20410;-73
2021/06/18 06:04:31;;;;;;;14.95;9.48;;;;;;;;;;5072413;28;20112;-75
2021/06/18 06:06:56;;;;;;;21.10;10.50;;;;;;;;;;5071975;28;20012;-73
2021/06/18 06:09:21;;;;;;;22.57;12.13;;;;;;;;;;5072207;28;20343;-74
2021/06/18 06:11:46;;;;;;;22.60;10.87;;;;;;;;;;5068998;28;20107;-73
2021/06/18 06:14:16;;;;;;;33.07;11.03;;;;;;;;;;5071893;28;20032;-73
2021/06/18 06:16:41;;;;;;;22.27;10.15;;;;;;;;;;5072722;28;20379;-76
2021/06/18 06:19:06;;;;;;;17.33;10.93;;;;;;;;;;5054915;28;20025;-73
2021/06/18 06:21:32;;;;;;;35.63;11.33;;;;;;;;;;5072346;28;20036;-75
2021/06/18 06:23:57;;;;;;;18.20;10.02;;;;;;;;;;5076537;28;20047;-74
2021/06/18 06:26:22;;;;;;;16.85;10.20;;;;;;;;;;5070411;28;20032;-70
2021/06/18 06:28:47;;;;;;;22.95;10.50;;;;;;;;;;5068345;28;20104;-69
2021/06/18 06:31:13;;;;;;;19.35;11.70;;;;;;;;;;5067486;28;20017;-70
2021/06/18 06:33:38;;;;;;;20.40;10.95;;;;;;;;;;5071420;28;20020;-70
2021/06/18 06:36:04;;;;;;;24.88;11.23;;;;;;;;;;5068483;28;20114;-70
2021/06/18 06:38:29;;;;;;;15.75;10.05;;;;;;;;;;5071813;28;20023;-70
2021/06/18 06:40:54;;;;;;;20.70;11.07;;;;;;;;;;5070738;28;20474;-70
2021/06/18 06:43:20;;;;;;;19.10;10.18;;;;;;;;;;5071759;28;20478;-70
2021/06/18 06:45:46;;;;;;;25.17;10.43;;;;;;;;;;5065524;28;20621;-70
2021/06/18 06:48:11;;;;;;;23.80;10.73;;;;;;;;;;5071182;28;20029;-71
2021/06/18 06:50:36;;;;;;;18.20;10.90;;;;;;;;;;5067741;28;20094;-71
2021/06/18 06:53:01;;;;;;;18.73;10.95;;;;;;;;;;5064648;28;20036;-71
2021/06/18 06:55:27;;;;;;;16.40;8.93;;;;;;;;;;5064369;28;20474;-70
2021/06/18 06:57:52;;;;;;;22.97;10.50;;;;;;;;;;5071951;28;20282;-71
2021/06/18 07:00:18;;;;;;;19.17;10.00;;;;;;;;;;5072234;28;20044;-70
2021/06/18 07:02:43;;;;;;;22.00;9.35;;;;;;;;;;5052098;28;20028;-71
2021/06/18 07:05:09;;;;;;;22.15;10.50;;;;;;;;;;5070722;28;20016;-70
2021/06/18 07:07:35;;;;;;;17.13;9.88;;;;;;;;;;5071536;28;20020;-71
2021/06/18 07:10:00;;;;;;;18.55;9.85;;;;;;;;;;5071153;28;20069;-71
2021/06/18 07:12:25;;;;;;;23.50;10.03;;;;;;;;;;5059870;28;20052;-71
2021/06/18 07:14:51;;;;;;;17.02;10.77;;;;;;;;;;5040681;28;20333;-71
2021/06/18 07:17:16;;;;;;;30.15;10.13;;;;;;;;;;5069362;28;20024;-71
2021/06/18 07:19:41;;;;;;;227.90;22.93;;;;;;;;;;5054796;28;20433;-71
2021/06/18 07:22:07;;;;;;;1224.47;101.28;;;;;;;;;;5060840;28;20832;-71
2021/06/18 07:24:33;;;;;;;21.42;10.98;;;;;;;;;;5071048;28;20019;-71
2021/06/18 07:26:58;;;;;;;115.45;16.42;;;;;;;;;;5068998;28;20024;-72
2021/06/18 07:29:26;;;;;;;20.73;11.13;;;;;;;;;;5069233;28;20035;-71
2021/06/18 07:31:51;;;;;;;36.15;10.65;;;;;;;;;;5070964;28;20273;-71
2021/06/18 07:34:16;;;;;;;20.77;9.27;;;;;;;;;;5065641;28;20017;-71
2021/06/18 07:36:41;;;;;;;594.20;43.93;;;;;;;;;;5056385;28;20097;-71
2021/06/18 07:39:08;;;;;;;18.33;9.88;;;;;;;;;;5070844;28;20024;-71
2021/06/18 07:41:35;;;;;;;26.42;9.95;;;;;;;;;;5068732;28;20107;-71
2021/06/18 07:44:00;;;;;;;23.83;10.07;;;;;;;;;;5070537;28;20016;-71
2021/06/18 07:46:26;;;;;;;21.33;8.53;;;;;;;;;;5070466;28;20184;-71
2021/06/18 07:48:52;;;;;;;16.75;9.40;;;;;;;;;;5070638;28;20023;-71
2021/06/18 07:51:18;;;;;;;15.47;9.23;;;;;;;;;;5048377;28;20017;-72
2021/06/18 07:53:43;;;;;;;25.00;10.27;;;;;;;;;;5037899;28;20284;-71
2021/06/18 07:56:08;;;;;;;19.27;9.53;;;;;;;;;;5069816;28;20024;-71
2021/06/18 07:58:33;;;;;;;23.92;10.18;;;;;;;;;;5070207;28;20482;-72
2021/06/18 08:00:59;;;;;;;35.67;9.55;;;;;;;;;;5070575;28;20055;-71
2021/06/18 08:03:24;;;;;;;19.70;8.77;;;;;;;;;;5069607;28;20063;-71
2021/06/18 08:05:49;;;;;;;17.43;8.20;;;;;;;;;;5068607;28;20353;-71
2021/06/18 08:08:14;;;;;;;17.38;8.60;;;;;;;;;;5054534;28;20291;-71
2021/06/18 08:10:39;;;;;;;16.00;7.83;;;;;;;;;;5062932;28;20027;-71
2021/06/18 08:13:05;;;;;;;43.80;14.30;;;;;;;;;;5071519;28;20274;-71
2021/06/18 08:15:30;;;;;;;27.75;10.43;;;;;;;;;;5069748;28;20293;-70
2021/06/18 08:17:56;;;;;;;24.73;10.18;;;;;;;;;;5069925;28;20028;-71
2021/06/18 08:20:24;;;;;;;17.38;8.90;;;;;;;;;;5070343;28;20027;-71
2021/06/18 08:22:50;;;;;;;13.35;8.10;;;;;;;;;;5070676;28;20423;-72
2021/06/18 08:25:15;;;;;;;17.65;8.02;;;;;;;;;;5068324;28;20104;-70
2021/06/18 08:27:40;;;;;;;18.33;8.70;;;;;;;;;;5069217;28;20021;-71
2021/06/18 08:30:06;;;;;;;38.50;9.43;;;;;;;;;;5070327;28;20294;-71
2021/06/18 08:32:31;;;;;;;22.77;8.70;;;;;;;;;;5048490;28;20025;-70
2021/06/18 08:34:57;;;;;;;28.90;8.77;;;;;;;;;;5066156;28;20032;-72
2021/06/18 08:37:22;;;;;;;27.25;8.57;;;;;;;;;;5051682;28;20028;-70
2021/06/18 08:39:47;;;;;;;20.80;8.43;;;;;;;;;;5070410;28;20028;-71
2021/06/18 08:42:12;;;;;;;26.00;8.87;;;;;;;;;;5050881;28;20021;-70
2021/06/18 08:44:37;;;;;;;25.87;8.60;;;;;;;;;;5069651;28;20270;-70
2021/06/18 08:47:03;;;;;;;30.20;9.50;;;;;;;;;;5051240;28;20666;-71
2021/06/18 08:49:28;;;;;;;25.27;8.32;;;;;;;;;;5069504;28;20028;-70
2021/06/18 08:51:54;;;;;;;15.50;8.27;;;;;;;;;;5069560;28;20022;-70
2021/06/18 08:54:19;;;;;;;15.43;8.18;;;;;;;;;;5069362;28;20045;-71
2021/06/18 08:56:44;;;;;;;20.05;9.40;;;;;;;;;;5069208;28;20028;-69
2021/06/18 08:59:10;;;;;;;23.95;8.60;;;;;;;;;;5060341;28;20529;-70
2021/06/18 09:01:35;;;;;;;20.23;7.95;;;;;;;;;;5070574;28;20455;-68
2021/06/18 09:04:02;;;;;;;14.88;8.95;;;;;;;;;;5077975;28;20032;-69
2021/06/18 09:06:28;;;;;;;20.80;9.20;;;;;;;;;;5067547;28;20234;-68
2021/06/18 09:09:13;;;;;;;20.35;9.38;;;;;;;;;;5054568;28;20020;-69
2021/06/18 09:11:50;;;;;;;24.60;9.00;;;;;;;;;;5056007;28;20096;-68
2021/06/18 09:14:32;;;;;;;32.80;10.75;;;;;;;;;;5064787;28;20028;-70
2021/06/18 09:17:04;;;;;;;19.85;9.35;;;;;;;;;;5069379;28;20066;-68
2021/06/18 09:19:30;;;;;;;16.48;9.43;;;;;;;;;;5060803;28;20025;-68
2021/06/18 09:21:59;;;;;;;26.25;9.82;;;;;;;;;;5070790;28;20099;-70
2021/06/18 09:24:51;;;;;;;19.37;8.37;;;;;;;;;;5054991;28;20487;-71
2021/06/18 09:27:27;;;;;;;23.48;8.77;;;;;;;;;;5078543;28;20284;-71
2021/06/18 09:29:52;;;;;;;20.77;10.32;;;;;;;;;;5072843;28;20024;-73
2021/06/18 09:32:18;;;;;;;17.17;9.77;;;;;;;;;;5072799;28;20258;-70
2021/06/18 09:34:49;;;;;;;16.33;9.27;;;;;;;;;;5066472;28;20056;-72
2021/06/18 09:37:20;;;;;;;32.95;8.73;;;;;;;;;;5089565;28;20023;-71
2021/06/18 09:39:54;;;;;;;18.67;7.45;;;;;;;;;;5082930;28;20046;-69
2021/06/18 09:42:23;;;;;;;23.58;8.05;;;;;;;;;;5069331;28;20029;-72
2021/06/18 09:45:07;;;;;;;14.65;7.32;;;;;;;;;;5069513;28;20048;-71
2021/06/18 09:47:32;;;;;;;17.63;8.23;;;;;;;;;;5071406;28;20047;-71
2021/06/18 09:49:57;;;;;;;18.80;7.72;;;;;;;;;;5070417;28;20016;-72
2021/06/18 09:52:25;;;;;;;15.73;6.55;;;;;;;;;;5072574;28;20453;-71
2021/06/18 09:54:53;;;;;;;15.77;7.15;;;;;;;;;;5070821;28;20047;-72
2021/06/18 09:57:39;;;;;;;21.58;8.05;;;;;;;;;;5072282;28;20066;-71
2021/06/18 10:00:05;;;;;;;20.58;7.45;;;;;;;;;;5072280;28;20514;-71
2021/06/18 10:02:37;;;;;;;18.98;7.63;;;;;;;;;;5073438;28;20111;-71
2021/06/18 10:05:03;;;;;;;19.88;6.72;;;;;;;;;;5072136;28;20038;-72
2021/06/18 10:07:31;;;;;;;12.70;6.70;;;;;;;;;;5072896;28;20029;-71
2021/06/18 10:09:56;;;;;;;21.75;7.95;;;;;;;;;;5068183;28;20512;-71
2021/06/18 10:12:21;;;;;;;21.13;6.57;;;;;;;;;;5069781;28;20095;-72
2021/06/18 10:14:47;;;;;;;20.57;6.13;;;;;;;;;;5064767;28;20613;-71
2021/06/18 10:17:12;;;;;;;18.13;6.90;;;;;;;;;;5061308;28;20017;-71
2021/06/18 10:19:37;;;;;;;19.80;6.80;;;;;;;;;;5071586;28;20262;-72
2021/06/18 10:22:07;;;;;;;16.42;6.95;;;;;;;;;;5070234;28;20278;-72
2021/06/18 10:24:35;;;;;;;22.13;7.05;;;;;;;;;;5070489;28;20029;-72
2021/06/18 10:27:00;;;;;;;15.32;6.50;;;;;;;;;;5071248;28;20652;-71
2021/06/18 10:29:44;;;;;;;18.85;6.65;;;;;;;;;;5072636;28;20024;-72
2021/06/18 10:32:28;;;;;;;19.95;5.03;;;;;;;;;;5054292;28;20027;-72
2021/06/18 10:34:54;;;;;;;14.07;5.60;;;;;;;;;;5053579;28;20017;-72
2021/06/18 10:37:20;;;;;;;15.35;5.45;;;;;;;;;;5071865;28;20044;-71
2021/06/18 10:39:49;;;;;;;14.10;5.25;;;;;;;;;;5069103;28;20017;-71
2021/06/18 10:42:16;;;;;;;14.07;5.03;;;;;;;;;;5064838;28;20016;-71
2021/06/18 10:44:42;;;;;;;16.85;4.78;;;;;;;;;;5072352;28;20490;-72
2021/06/18 10:47:22;;;;;;;16.77;6.30;;;;;;;;;;5070313;28;20020;-71
2021/06/18 10:49:48;;;;;;;13.77;5.15;;;;;;;;;;5061456;28;20020;-72
2021/06/18 10:52:17;;;;;;;14.73;5.80;;;;;;;;;;5072036;28;20012;-72
2021/06/18 10:54:46;;;;;;;10.73;4.65;;;;;;;;;;5068311;28;20421;-72
2021/06/18 10:57:16;;;;;;;22.50;5.20;;;;;;;;;;5068474;28;20021;-73
2021/06/18 10:59:48;;;;;;;18.42;4.55;;;;;;;;;;5047041;28;20020;-72
2021/06/18 11:02:19;;;;;;;21.40;5.05;;;;;;;;;;5091081;23;20049;-65
2021/06/18 11:04:44;;;;;;;17.25;4.70;;;;;;;;;;5050158;28;20025;-67
2021/06/18 11:07:24;;;;;;;11.50;3.60;;;;;;;;;;5050862;28;20568;-67
2021/06/18 11:09:50;;;;;;;10.07;4.30;;;;;;;;;;5051099;28;20030;-67
2021/06/18 11:12:24;;;;;;;14.65;3.85;;;;;;;;;;5056083;28;20090;-67
2021/06/18 11:14:57;;;;;;;13.00;4.32;;;;;;;;;;5066972;28;20733;-67
2021/06/18 11:17:38;;;;;;;13.80;4.10;;;;;;;;;;5068294;28;20020;-68
2021/06/18 11:20:23;;;;;;;22.42;5.00;;;;;;;;;;5071352;28;20024;-67
2021/06/18 11:23:04;;;;;;;16.25;5.38;;;;;;;;;;5071033;28;20086;-67
2021/06/18 11:25:35;;;;;;;26.88;6.78;;;;;;;;;;5070707;28;20585;-67
2021/06/18 11:28:19;;;;;;;13.32;4.13;;;;;;;;;;5062398;28;20024;-67
2021/06/18 11:30:53;;;;;;;12.90;3.92;;;;;;;;;;5071324;28;20117;-67
2021/06/18 11:33:36;;;;;;;15.00;4.45;;;;;;;;;;5071065;28;20025;-67
2021/06/18 11:36:02;;;;;;;17.25;5.43;;;;;;;;;;5068421;28;20017;-67
2021/06/18 11:38:27;;;;;;;19.77;3.90;;;;;;;;;;5070982;28;20051;-67
2021/06/18 11:41:04;;;;;;;13.52;4.35;;;;;;;;;;5071027;28;20016;-67
2021/06/18 11:43:30;;;;;;;13.80;4.40;;;;;;;;;;5069396;28;20448;-67
2021/06/18 11:45:56;;;;;;;12.43;4.32;;;;;;;;;;5070320;28;20495;-67
2021/06/18 11:48:21;;;;;;;12.35;5.20;;;;;;;;;;5070814;28;20024;-67
2021/06/18 11:50:47;;;;;;;21.35;4.47;;;;;;;;;;5061067;28;20088;-67
2021/06/18 11:53:13;;;;;;;9.05;3.10;;;;;;;;;;5068755;28;20013;-67
2021/06/18 11:55:38;;;;;;;12.15;3.25;;;;;;;;;;5070288;28;20102;-68
2021/06/18 11:58:03;;;;;;;10.65;2.92;;;;;;;;;;5070813;28;20016;-68
2021/06/18 12:00:32;;;;;;;11.25;3.28;;;;;;;;;;5069054;28;20028;-68
2021/06/18 12:02:58;;;;;;;8.52;3.28;;;;;;;;;;5070452;28;20082;-68
2021/06/18 12:05:28;;;;;;;13.73;4.43;;;;;;;;;;5070060;28;20039;-68
2021/06/18 12:07:54;;;;;;;8.43;3.20;;;;;;;;;;5070616;28;20028;-68
2021/06/18 12:10:21;;;;;;;15.23;3.43;;;;;;;;;;5070702;28;20024;-68
2021/06/18 12:12:47;;;;;;;13.73;4.35;;;;;;;;;;5069625;28;20445;-68
2021/06/18 12:15:16;;;;;;;7.57;3.05;;;;;;;;;;5064301;28;20016;-68
2021/06/18 12:17:47;;;;;;;9.45;3.50;;;;;;;;;;5052014;28;20029;-68
2021/06/18 12:20:20;;;;;;;18.80;4.40;;;;;;;;;;5069893;28;20417;-67
2021/06/18 12:22:45;;;;;;;10.40;3.00;;;;;;;;;;5070497;28;20414;-67
2021/06/18 12:25:11;;;;;;;10.20;4.00;;;;;;;;;;5069632;28;20025;-67
2021/06/18 12:27:36;;;;;;;6.95;2.78;;;;;;;;;;5070080;28;20035;-68
2021/06/18 12:30:05;;;;;;;10.75;2.78;;;;;;;;;;5065894;28;20035;-67
2021/06/18 12:32:32;;;;;;;11.07;2.90;;;;;;;;;;5069871;28;20027;-68
2021/06/18 12:34:57;;;;;;;11.57;2.90;;;;;;;;;;5069475;28;20029;-67
2021/06/18 12:37:24;;;;;;;11.90;3.08;;;;;;;;;;5078563;28;20103;-67
2021/06/18 12:39:54;;;;;;;14.65;3.42;;;;;;;;;;5079288;28;20028;-68
2021/06/18 12:42:21;;;;;;;6.30;3.13;;;;;;;;;;5069624;28;20107;-67
2021/06/18 12:44:47;;;;;;;12.50;2.90;;;;;;;;;;5069581;28;20102;-68
2021/06/18 12:47:22;;;;;;;12.55;4.22;;;;;;;;;;5068676;28;20363;-67
2021/06/18 12:49:48;;;;;;;6.35;2.58;;;;;;;;;;5066312;28;20025;-67
2021/06/18 12:52:15;;;;;;;7.73;2.03;;;;;;;;;;5065522;28;20074;-67
2021/06/18 12:54:41;;;;;;;12.88;4.45;;;;;;;;;;5069305;28;20273;-67
2021/06/18 12:57:21;;;;;;;7.22;3.53;;;;;;;;;;5069600;28;20381;-67
2021/06/18 12:59:46;;;;;;;11.95;3.42;;;;;;;;;;5070422;28;20028;-67
2021/06/18 13:02:11;;;;;;;11.93;3.17;;;;;;;;;;5068489;28;20367;-67
2021/06/18 13:04:37;;;;;;;8.27;3.70;;;;;;;;;;5057571;28;20025;-68
2021/06/18 13:07:02;;;;;;;15.37;4.17;;;;;;;;;;5067312;28;20052;-67
2021/06/18 13:09:35;;;;;;;11.50;4.22;;;;;;;;;;5069371;28;20017;-67
2021/06/18 13:12:01;;;;;;;11.63;3.42;;;;;;;;;;5069533;28;20040;-67
2021/06/18 13:14:26;;;;;;;9.32;2.95;;;;;;;;;;5069144;28;20079;-67
2021/06/18 13:17:00;;;;;;;12.23;3.55;;;;;;;;;;5069428;28;20021;-67
2021/06/18 13:19:46;;;;;;;8.88;3.20;;;;;;;;;;5067278;28;20070;-67
2021/06/18 13:22:13;;;;;;;8.65;3.70;;;;;;;;;;5059185;28;20024;-68
2021/06/18 13:25:08;;;;;;;6.35;3.17;;;;;;;;;;5068643;28;20020;-67
2021/06/18 13:27:33;;;;;;;13.05;3.22;;;;;;;;;;5045154;28;20056;-67
2021/06/18 13:30:01;;;;;;;7.22;3.05;;;;;;;;;;5069256;28;20541;-67
2021/06/18 13:32:27;;;;;;;7.40;3.17;;;;;;;;;;5069515;28;20017;-68
2021/06/18 13:34:57;;;;;;;15.82;3.40;;;;;;;;;;5069416;28;20021;-68
2021/06/18 13:37:27;;;;;;;14.73;3.55;;;;;;;;;;5067924;28;20524;-67
2021/06/18 13:39:58;;;;;;;17.00;3.85;;;;;;;;;;5069541;28;20103;-67
2021/06/18 13:42:23;;;;;;;20.58;3.58;;;;;;;;;;5069419;28;20090;-67
2021/06/18 13:44:48;;;;;;;18.37;3.53;;;;;;;;;;5069355;28;20491;-67
2021/06/18 13:47:13;;;;;;;11.13;3.37;;;;;;;;;;5051696;28;20020;-67
2021/06/18 13:49:39;;;;;;;10.53;3.50;;;;;;;;;;5063884;28;20461;-67
2021/06/18 13:52:04;;;;;;;9.13;3.20;;;;;;;;;;5069689;28;20025;-68
2021/06/18 13:54:29;;;;;;;12.13;3.55;;;;;;;;;;5069474;28;20040;-67
2021/06/18 13:56:54;;;;;;;7.70;2.80;;;;;;;;;;5069622;28;20023;-67
2021/06/18 13:59:21;;;;;;;6.38;3.13;;;;;;;;;;5069417;28;20364;-68
2021/06/18 14:01:46;;;;;;;11.00;3.20;;;;;;;;;;5068826;28;20119;-67
2021/06/18 14:04:11;;;;;;;11.17;3.37;;;;;;;;;;5066436;28;20107;-67
2021/06/18 14:06:36;;;;;;;7.80;3.07;;;;;;;;;;5066250;28;20353;-68
2021/06/18 14:09:03;;;;;;;17.93;3.13;;;;;;;;;;5063275;28;20622;-67
2021/06/18 14:11:28;;;;;;;12.65;5.32;;;;;;;;;;5071546;28;20263;-68
2021/06/18 14:13:57;;;;;;;9.73;3.53;;;;;;;;;;5070277;28;20096;-68
2021/06/18 14:16:23;;;;;;;9.48;3.05;;;;;;;;;;5069053;28;20109;-67
2021/06/18 14:18:48;;;;;;;12.30;3.45;;;;;;;;;;5072640;28;20433;-67
2021/06/18 14:21:13;;;;;;;14.40;3.47;;;;;;;;;;5072919;28;20035;-68
2021/06/18 14:23:38;;;;;;;8.48;3.20;;;;;;;;;;5066887;28;20286;-67
2021/06/18 14:26:04;;;;;;;7.63;3.30;;;;;;;;;;5069493;28;20027;-68
2021/06/18 14:28:29;;;;;;;7.23;3.07;;;;;;;;;;5071937;28;20020;-67
2021/06/18 14:30:54;;;;;;;13.23;3.67;;;;;;;;;;5072502;28;20043;-67